Time;durP1;ratioP1;P1;durP2;ratioP2;P2;SDS_P1;SDS_P2;PMS_P1;PMS_P2;Temp;Humidity;BMP_temperature;BMP_pressure;BME280_temperature;BME280_humidity;BME280_pressure;Samples;Min_cycle;Max_cycle;Signal;HPM_P1;HPM_P2
2021/01/12 00:00:22;;;;;;;;;;;26.50;78.60;;;;;;5093234;28;19981;-83
2021/01/12 00:02:52;;;;;;;;;;;26.50;78.70;;;;;;5085448;28;19939;-83
2021/01/12 00:05:19;;;;;;;;;;;26.50;77.70;;;;;;5100904;28;20330;-83
2021/01/12 00:07:47;;;;;;;;;;;26.40;78.30;;;;;;5094079;28;19912;-82
2021/01/12 00:10:13;;;;;;;;;;;26.50;78.90;;;;;;5094593;28;19973;-82
2021/01/12 00:12:40;;;;;;;;;;;26.50;79.10;;;;;;5094298;28;19912;-82
2021/01/12 00:15:08;;;;;;;;;;;26.60;78.80;;;;;;5094386;28;20305;-82
2021/01/12 00:17:35;;;;;;;;;;;26.80;75.70;;;;;;5092851;28;19971;-82
2021/01/12 00:20:03;;;;;;;;;;;26.90;76.30;;;;;;5094136;28;20019;-84
2021/01/12 00:22:32;;;;;;;;;;;26.90;75.90;;;;;;5092836;28;20008;-83
2021/01/12 00:24:59;;;;;;;;;;;26.90;78.70;;;;;;5094746;28;19908;-84
2021/01/12 00:27:26;;;;;;;;;;;27.00;76.90;;;;;;5093685;28;19924;-84
2021/01/12 00:29:53;;;;;;;;;;;27.10;76.10;;;;;;5090876;28;19913;-85
2021/01/12 00:32:21;;;;;;;;;;;27.20;76.20;;;;;;5094331;28;19955;-87
2021/01/12 00:34:48;;;;;;;;;;;27.20;76.40;;;;;;5094180;28;19914;-82
2021/01/12 00:37:18;;;;;;;;;;;27.20;75.60;;;;;;5092840;28;20281;-85
2021/01/12 00:39:45;;;;;;;;;;;27.20;75.10;;;;;;5093569;28;20019;-82
2021/01/12 00:42:12;;;;;;;;;;;27.50;74.10;;;;;;5093497;28;21069;-83
2021/01/12 00:44:39;;;;;;;;;;;27.60;73.70;;;;;;5099417;28;20365;-85
2021/01/12 00:47:08;;;;;;;;;;;27.80;73.30;;;;;;5098423;28;19939;-82
2021/01/12 00:49:34;;;;;;;;;;;28.10;71.20;;;;;;5093048;28;19935;-82
2021/01/12 00:52:01;;;;;;;;;;;28.10;71.30;;;;;;5089834;28;19935;-84
2021/01/12 00:54:30;;;;;;;;;;;28.20;70.80;;;;;;5092763;28;19912;-83
2021/01/12 00:56:57;;;;;;;;;;;28.30;71.20;;;;;;5092563;28;20009;-88
2021/01/12 00:59:24;;;;;;;;;;;28.80;70.50;;;;;;5092278;28;19962;-86
2021/01/12 01:01:51;;;;;;;;;;;29.20;69.20;;;;;;5094111;28;19973;-87
2021/01/12 01:04:42;;;;;;;;;;;29.10;70.80;;;;;;5094693;28;19908;-85
2021/01/12 01:07:07;;;;;;;;;;;29.10;69.90;;;;;;5093037;28;19912;-85
2021/01/12 01:09:35;;;;;;;;;;;29.20;69.30;;;;;;5073551;28;19920;-88
2021/01/12 01:12:02;;;;;;;;;;;29.60;69.60;;;;;;5093031;28;19916;-87
2021/01/12 01:14:28;;;;;;;;;;;29.40;68.90;;;;;;5099637;28;20019;-86
2021/01/12 01:16:58;;;;;;;;;;;29.00;70.60;;;;;;5094876;28;20389;-88
2021/01/12 01:19:25;;;;;;;;;;;28.90;70.50;;;;;;5096800;28;19912;-83
2021/01/12 01:21:52;;;;;;;;;;;28.90;70.90;;;;;;5095512;28;19916;-86
2021/01/12 01:24:18;;;;;;;;;;;29.00;71.60;;;;;;5101799;28;19912;-85
2021/01/12 01:26:45;;;;;;;;;;;29.20;70.70;;;;;;5091938;28;19999;-82
2021/01/12 01:29:12;;;;;;;;;;;29.50;70.50;;;;;;5091058;28;19974;-84
2021/01/12 01:31:42;;;;;;;;;;;29.50;70.90;;;;;;5093636;28;19915;-84
2021/01/12 01:34:09;;;;;;;;;;;29.40;70.20;;;;;;5095157;28;20427;-84
2021/01/12 01:36:36;;;;;;;;;;;29.80;70.00;;;;;;5092749;28;19912;-86
2021/01/12 01:39:03;;;;;;;;;;;30.00;70.80;;;;;;5090772;28;19973;-86
2021/01/12 01:41:32;;;;;;;;;;;30.00;69.10;;;;;;5092748;28;20340;-83
2021/01/12 01:43:59;;;;;;;;;;;30.30;69.50;;;;;;5083876;28;19992;-86
2021/01/12 01:46:26;;;;;;;;;;;30.00;69.60;;;;;;5093576;28;19920;-87
2021/01/12 01:48:53;;;;;;;;;;;29.80;69.70;;;;;;5093396;28;19998;-88
2021/01/12 01:51:19;;;;;;;;;;;29.70;71.20;;;;;;5093826;28;19961;-85
2021/01/12 01:53:46;;;;;;;;;;;29.50;71.10;;;;;;5093614;28;19916;-87
2021/01/12 01:56:13;;;;;;;;;;;29.50;71.00;;;;;;5093664;28;19912;-85
2021/01/12 01:58:40;;;;;;;;;;;29.00;71.80;;;;;;5091476;28;20413;-82
2021/01/12 02:01:10;;;;;;;;;;;28.70;72.60;;;;;;5073571;28;19983;-86
2021/01/12 02:03:42;;;;;;;;;;;28.40;72.10;;;;;;5098133;28;19960;-82
2021/01/12 02:06:14;;;;;;;;;;;28.00;73.60;;;;;;5106078;28;19912;-83
2021/01/12 02:08:52;;;;;;;;;;;27.90;75.20;;;;;;5095086;28;19912;-89
2021/01/12 02:11:19;;;;;;;;;;;27.80;75.50;;;;;;5086156;28;20359;-87
2021/01/12 02:13:46;;;;;;;;;;;27.70;76.40;;;;;;5095772;28;19977;-86
2021/01/12 02:16:13;;;;;;;;;;;27.60;76.60;;;;;;5093384;28;19924;-86
2021/01/12 02:18:40;;;;;;;;;;;27.50;76.60;;;;;;5084463;28;19919;-87
2021/01/12 02:21:07;;;;;;;;;;;27.40;78.10;;;;;;5091999;28;19955;-91
2021/01/12 02:23:57;;;;;;;;;;;27.60;77.50;;;;;;5092973;28;20434;-81
2021/01/12 02:26:25;;;;;;;;;;;27.60;77.70;;;;;;5093873;28;20040;-90
2021/01/12 02:28:52;;;;;;;;;;;27.70;78.70;;;;;;5094785;28;20302;-90
2021/01/12 02:31:18;;;;;;;;;;;27.70;77.10;;;;;;5094224;28;19955;-89
2021/01/12 02:33:46;;;;;;;;;;;27.60;77.30;;;;;;5094076;28;19966;-87
2021/01/12 02:36:15;;;;;;;;;;;27.50;78.60;;;;;;5095914;28;19985;-88
2021/01/12 02:38:44;;;;;;;;;;;27.50;78.90;;;;;;5093351;28;20243;-87
2021/01/12 02:41:15;;;;;;;;;;;27.50;78.20;;;;;;5107237;28;19915;-83
2021/01/12 02:43:42;;;;;;;;;;;27.60;78.30;;;;;;5090796;28;20627;-84
2021/01/12 02:46:12;;;;;;;;;;;27.60;78.10;;;;;;5089004;28;20410;-87
2021/01/12 02:48:39;;;;;;;;;;;27.60;78.50;;;;;;5092119;28;19908;-86
2021/01/12 02:51:06;;;;;;;;;;;27.50;78.50;;;;;;5091598;28;20046;-84
2021/01/12 02:53:32;;;;;;;;;;;27.50;78.50;;;;;;5091263;28;19912;-83
2021/01/12 02:55:59;;;;;;;;;;;27.50;78.80;;;;;;5091138;28;19960;-83
2021/01/12 02:58:26;;;;;;;;;;;27.50;78.70;;;;;;5090612;28;19923;-81
2021/01/12 03:00:54;;;;;;;;;;;27.50;78.80;;;;;;5086711;28;19919;-83
2021/01/12 03:03:21;;;;;;;;;;;27.50;79.40;;;;;;5095714;28;20282;-85
2021/01/12 03:05:48;;;;;;;;;;;27.40;79.70;;;;;;5081974;28;20359;-80
2021/01/12 03:08:15;;;;;;;;;;;27.30;78.70;;;;;;5093636;28;19920;-83
2021/01/12 03:10:42;;;;;;;;;;;27.30;80.00;;;;;;5096559;28;19912;-83
2021/01/12 03:13:09;;;;;;;;;;;27.30;78.10;;;;;;5095565;28;20358;-82
2021/01/12 03:15:36;;;;;;;;;;;27.20;79.20;;;;;;5094983;28;20406;-80
2021/01/12 03:18:03;;;;;;;;;;;27.20;79.10;;;;;;5077759;28;19995;-85
2021/01/12 03:20:30;;;;;;;;;;;27.10;80.10;;;;;;5081056;28;20315;-87
2021/01/12 03:22:57;;;;;;;;;;;27.10;79.80;;;;;;5075969;28;19912;-86
2021/01/12 03:25:24;;;;;;;;;;;27.00;80.30;;;;;;5081974;28;19950;-82
2021/01/12 03:27:50;;;;;;;;;;;27.00;79.50;;;;;;5074974;28;20278;-82
2021/01/12 03:30:17;;;;;;;;;;;27.10;79.10;;;;;;5074909;28;19908;-82
2021/01/12 03:32:44;;;;;;;;;;;27.20;80.00;;;;;;5091238;28;20517;-84
2021/01/12 03:35:11;;;;;;;;;;;27.20;80.50;;;;;;5093924;28;20373;-83
2021/01/12 03:37:38;;;;;;;;;;;27.40;79.90;;;;;;5082381;28;19958;-84
2021/01/12 03:40:05;;;;;;;;;;;27.40;78.90;;;;;;5096222;28;19955;-84
2021/01/12 03:42:32;;;;;;;;;;;27.40;79.70;;;;;;5095890;28;19916;-81
2021/01/12 03:44:59;;;;;;;;;;;27.50;79.90;;;;;;5092981;28;19913;-80
2021/01/12 03:47:25;;;;;;;;;;;27.50;78.90;;;;;;5076304;28;20023;-82
2021/01/12 03:49:52;;;;;;;;;;;27.60;79.60;;;;;;5076545;28;19960;-81
2021/01/12 03:52:19;;;;;;;;;;;27.60;79.30;;;;;;5077216;28;19912;-84
2021/01/12 03:54:46;;;;;;;;;;;27.50;79.80;;;;;;5084127;28;19912;-81
2021/01/12 03:57:13;;;;;;;;;;;27.50;80.10;;;;;;5095812;28;19908;-82
2021/01/12 03:59:42;;;;;;;;;;;27.50;78.70;;;;;;5093519;28;19954;-84
2021/01/12 04:02:09;;;;;;;;;;;27.40;77.20;;;;;;5095755;28;19908;-84
2021/01/12 04:04:36;;;;;;;;;;;27.30;76.70;;;;;;5084574;28;19994;-84
2021/01/12 04:07:05;;;;;;;;;;;27.10;76.80;;;;;;5095745;28;19913;-84
2021/01/12 04:09:50;;;;;;;;;;;27.20;77.10;;;;;;5087755;28;19957;-82
2021/01/12 04:12:17;;;;;;;;;;;27.20;77.10;;;;;;5079846;28;19912;-83
2021/01/12 04:14:43;;;;;;;;;;;27.20;76.90;;;;;;5082446;28;20259;-85
2021/01/12 04:17:10;;;;;;;;;;;27.30;75.70;;;;;;5094920;28;20063;-84
2021/01/12 04:19:37;;;;;;;;;;;27.10;77.10;;;;;;5095349;28;19934;-86
2021/01/12 04:22:07;;;;;;;;;;;27.20;76.30;;;;;;5094982;28;19908;-88
2021/01/12 04:24:34;;;;;;;;;;;27.10;75.80;;;;;;5093229;28;19931;-84
2021/01/12 04:27:00;;;;;;;;;;;27.00;75.80;;;;;;5093471;28;19971;-84
2021/01/12 04:29:27;;;;;;;;;;;27.20;75.70;;;;;;5093115;28;19990;-84
2021/01/12 04:31:54;;;;;;;;;;;27.20;75.00;;;;;;5086787;28;20003;-84
2021/01/12 04:34:23;;;;;;;;;;;27.20;75.10;;;;;;5084927;28;20335;-83
2021/01/12 04:36:49;;;;;;;;;;;27.10;74.40;;;;;;5095905;28;19969;-84
2021/01/12 04:39:16;;;;;;;;;;;27.10;72.60;;;;;;5095942;28;19965;-85
2021/01/12 04:41:44;;;;;;;;;;;27.00;73.00;;;;;;5093575;28;19912;-84
2021/01/12 04:44:11;;;;;;;;;;;27.00;74.00;;;;;;5091273;28;20354;-81
2021/01/12 04:46:38;;;;;;;;;;;27.00;73.30;;;;;;5093112;28;19939;-85
2021/01/12 04:49:04;;;;;;;;;;;27.00;73.30;;;;;;5093670;28;19989;-83
2021/01/12 04:51:31;;;;;;;;;;;27.00;74.00;;;;;;5092560;28;20307;-84
2021/01/12 04:53:58;;;;;;;;;;;27.20;73.40;;;;;;5093197;28;19996;-84
2021/01/12 04:56:24;;;;;;;;;;;27.10;74.00;;;;;;5092582;28;19958;-84
2021/01/12 04:58:54;;;;;;;;;;;27.10;73.70;;;;;;5091504;28;19959;-85
2021/01/12 05:01:33;;;;;;;;;;;27.00;74.30;;;;;;5092789;28;19908;-84
2021/01/12 05:04:03;;;;;;;;;;;26.80;75.20;;;;;;5091934;28;19916;-82
2021/01/12 05:06:30;;;;;;;;;;;26.90;74.40;;;;;;5094435;28;19912;-83
2021/01/12 05:09:01;;;;;;;;;;;27.00;74.40;;;;;;5092151;28;19919;-84
2021/01/12 05:11:31;;;;;;;;;;;27.00;73.90;;;;;;5093136;28;20282;-83
2021/01/12 05:14:05;;;;;;;;;;;26.90;74.30;;;;;;5092311;28;19942;-83
2021/01/12 05:16:33;;;;;;;;;;;26.80;74.70;;;;;;5093164;28;19909;-84
2021/01/12 05:19:00;;;;;;;;;;;26.80;75.10;;;;;;5093160;28;19912;-83
2021/01/12 05:21:26;;;;;;;;;;;26.90;75.40;;;;;;5092253;28;19908;-82
2021/01/12 05:24:00;;;;;;;;;;;26.90;74.00;;;;;;5089511;28;19920;-84
2021/01/12 05:26:32;;;;;;;;;;;26.80;74.30;;;;;;5092583;28;20017;-83
2021/01/12 05:29:00;;;;;;;;;;;26.80;73.50;;;;;;5091200;28;19933;-83
2021/01/12 05:31:27;;;;;;;;;;;26.70;74.80;;;;;;5094161;28;19912;-85
2021/01/12 05:33:55;;;;;;;;;;;26.70;73.40;;;;;;5092222;28;20430;-82
2021/01/12 05:36:24;;;;;;;;;;;26.70;74.30;;;;;;5092155;28;19916;-83
2021/01/12 05:38:54;;;;;;;;;;;26.60;72.80;;;;;;5093643;28;19968;-83
2021/01/12 05:41:25;;;;;;;;;;;26.80;74.40;;;;;;5092135;28;19963;-84
2021/01/12 05:43:52;;;;;;;;;;;26.80;72.40;;;;;;5092079;28;19920;-83
2021/01/12 05:46:18;;;;;;;;;;;26.80;74.00;;;;;;5091568;28;19912;-83
2021/01/12 05:48:45;;;;;;;;;;;26.60;75.10;;;;;;5088033;28;19916;-83
2021/01/12 05:51:16;;;;;;;;;;;26.60;76.00;;;;;;5087746;28;19955;-82
2021/01/12 05:53:45;;;;;;;;;;;26.70;76.90;;;;;;5089134;28;19916;-83
2021/01/12 05:56:16;;;;;;;;;;;26.70;75.70;;;;;;5088927;28;19920;-83
2021/01/12 05:58:48;;;;;;;;;;;26.60;75.90;;;;;;5089439;28;19935;-82
2021/01/12 06:01:20;;;;;;;;;;;26.60;75.90;;;;;;5089445;28;19998;-82
2021/01/12 06:03:47;;;;;;;;;;;26.50;77.00;;;;;;5089459;28;20007;-82
2021/01/12 06:06:14;;;;;;;;;;;26.50;76.50;;;;;;5089619;28;19927;-84
2021/01/12 06:08:42;;;;;;;;;;;26.50;76.20;;;;;;5090127;28;19916;-83
2021/01/12 06:11:10;;;;;;;;;;;26.60;75.90;;;;;;5089318;28;19908;-84
2021/01/12 06:13:42;;;;;;;;;;;26.60;77.30;;;;;;5090315;28;19970;-84
2021/01/12 06:16:18;;;;;;;;;;;26.60;77.40;;;;;;5088795;28;19912;-83
2021/01/12 06:18:56;;;;;;;;;;;26.70;76.80;;;;;;5089010;28;19935;-82
2021/01/12 06:21:23;;;;;;;;;;;26.70;77.00;;;;;;5089923;28;20365;-83
2021/01/12 06:23:55;;;;;;;;;;;26.70;77.30;;;;;;5089385;28;19951;-82
2021/01/12 06:26:21;;;;;;;;;;;26.60;77.00;;;;;;5089340;28;19989;-83
2021/01/12 06:28:48;;;;;;;;;;;26.70;77.20;;;;;;5088315;28;19944;-83
2021/01/12 06:31:15;;;;;;;;;;;26.70;77.20;;;;;;5089222;28;19963;-84
2021/01/12 06:33:42;;;;;;;;;;;26.70;77.20;;;;;;5091366;28;19967;-84
2021/01/12 06:36:09;;;;;;;;;;;26.60;77.30;;;;;;5093924;28;19915;-86
2021/01/12 06:38:39;;;;;;;;;;;26.60;77.60;;;;;;5087526;28;19938;-83
2021/01/12 06:41:07;;;;;;;;;;;26.60;77.90;;;;;;5092869;28;20412;-84
2021/01/12 06:43:35;;;;;;;;;;;26.60;77.10;;;;;;5098786;28;20004;-79
2021/01/12 06:46:02;;;;;;;;;;;26.50;77.40;;;;;;5092258;28;19923;-80
2021/01/12 06:48:31;;;;;;;;;;;26.50;78.20;;;;;;5093798;28;20366;-84
2021/01/12 06:51:00;;;;;;;;;;;26.50;78.20;;;;;;5093341;28;19912;-85
2021/01/12 06:53:28;;;;;;;;;;;26.60;78.00;;;;;;5091151;28;20033;-82
2021/01/12 06:56:06;;;;;;;;;;;26.40;79.00;;;;;;5092678;28;20349;-84
2021/01/12 06:58:33;;;;;;;;;;;26.40;79.10;;;;;;5092506;28;19912;-83
2021/01/12 07:01:01;;;;;;;;;;;26.40;78.80;;;;;;5091552;28;20018;-80
2021/01/12 07:03:31;;;;;;;;;;;26.30;78.90;;;;;;5091477;28;19918;-82
2021/01/12 07:06:00;;;;;;;;;;;26.30;78.10;;;;;;5092640;28;19912;-81
2021/01/12 07:08:27;;;;;;;;;;;26.30;78.40;;;;;;5093578;28;19977;-85
2021/01/12 07:10:54;;;;;;;;;;;26.30;78.40;;;;;;5093342;28;20031;-81
2021/01/12 07:13:20;;;;;;;;;;;26.30;78.40;;;;;;5092657;28;20400;-81
2021/01/12 07:15:48;;;;;;;;;;;26.20;78.40;;;;;;5093122;28;19908;-82
2021/01/12 07:18:20;;;;;;;;;;;26.20;78.20;;;;;;5092508;28;19939;-81
2021/01/12 07:20:47;;;;;;;;;;;26.20;79.10;;;;;;5093295;28;19916;-82
2021/01/12 07:23:14;;;;;;;;;;;26.20;79.00;;;;;;5091990;28;20381;-82
2021/01/12 07:25:45;;;;;;;;;;;26.20;78.10;;;;;;5090774;28;19912;-81
2021/01/12 07:28:14;;;;;;;;;;;26.00;77.90;;;;;;5090227;28;19924;-84
2021/01/12 07:30:42;;;;;;;;;;;26.00;76.30;;;;;;5092585;28;20307;-81
2021/01/12 07:33:09;;;;;;;;;;;25.80;76.40;;;;;;5087384;28;20478;-82
2021/01/12 07:35:36;;;;;;;;;;;25.80;76.70;;;;;;5092277;28;19916;-82
2021/01/12 07:38:03;;;;;;;;;;;25.70;75.40;;;;;;5092912;28;19919;-82
2021/01/12 07:40:30;;;;;;;;;;;25.60;77.30;;;;;;5092520;28;19912;-82
2021/01/12 07:42:58;;;;;;;;;;;25.60;77.00;;;;;;5092203;28;19916;-82
2021/01/12 07:45:27;;;;;;;;;;;25.70;76.60;;;;;;5091511;28;19912;-82
2021/01/12 07:47:56;;;;;;;;;;;25.70;77.10;;;;;;5090901;28;19920;-82
2021/01/12 07:50:23;;;;;;;;;;;25.60;76.60;;;;;;5092657;28;19927;-81
2021/01/12 07:52:50;;;;;;;;;;;25.60;77.80;;;;;;5092565;28;20320;-80
2021/01/12 07:55:17;;;;;;;;;;;25.70;76.30;;;;;;5092497;28;19912;-81
2021/01/12 07:57:45;;;;;;;;;;;25.50;76.70;;;;;;5090475;28;20021;-81
2021/01/12 08:00:13;;;;;;;;;;;25.60;77.90;;;;;;5088797;28;19923;-82
2021/01/12 08:02:40;;;;;;;;;;;25.60;77.80;;;;;;5077302;28;20239;-81
2021/01/12 08:05:08;;;;;;;;;;;25.50;77.50;;;;;;5093361;28;20317;-80
2021/01/12 08:07:35;;;;;;;;;;;25.50;77.80;;;;;;5092493;28;19969;-81
2021/01/12 08:10:02;;;;;;;;;;;25.40;78.00;;;;;;5087733;28;19974;-82
2021/01/12 08:12:29;;;;;;;;;;;25.30;77.90;;;;;;5089272;28;20022;-81
2021/01/12 08:14:56;;;;;;;;;;;25.20;78.90;;;;;;5090180;28;19919;-81
2021/01/12 08:17:25;;;;;;;;;;;25.20;78.80;;;;;;5091818;28;20002;-81
2021/01/12 08:19:53;;;;;;;;;;;25.20;79.50;;;;;;5091970;28;19916;-82
2021/01/12 08:22:20;;;;;;;;;;;25.10;79.40;;;;;;5090675;28;19935;-83
2021/01/12 08:24:48;;;;;;;;;;;25.10;80.10;;;;;;5089576;28;19912;-82
2021/01/12 08:27:18;;;;;;;;;;;25.00;80.70;;;;;;5092839;28;19928;-82
2021/01/12 08:29:45;;;;;;;;;;;25.00;81.80;;;;;;5092949;28;19915;-82
2021/01/12 08:32:12;;;;;;;;;;;25.00;83.50;;;;;;5095787;28;20362;-85
2021/01/12 08:34:59;;;;;;;;;;;25.00;84.30;;;;;;5094413;28;19908;-84
2021/01/12 08:37:26;;;;;;;;;;;24.90;84.80;;;;;;5094790;28;19908;-83
2021/01/12 08:39:53;;;;;;;;;;;24.80;85.90;;;;;;5094558;28;19915;-83
2021/01/12 08:42:20;;;;;;;;;;;24.70;86.50;;;;;;5093242;28;19909;-83
2021/01/12 08:44:47;;;;;;;;;;;24.60;86.80;;;;;;5094505;28;19970;-84
2021/01/12 08:47:14;;;;;;;;;;;24.50;87.30;;;;;;5093380;28;19939;-82
2021/01/12 08:49:41;;;;;;;;;;;24.50;87.90;;;;;;5093469;28;20004;-83
2021/01/12 08:52:08;;;;;;;;;;;24.40;88.40;;;;;;5093109;28;19999;-82
2021/01/12 08:54:35;;;;;;;;;;;24.40;88.90;;;;;;5094420;28;19912;-83
2021/01/12 08:57:05;;;;;;;;;;;24.30;89.60;;;;;;5093183;28;20378;-83
2021/01/12 08:59:33;;;;;;;;;;;24.20;90.10;;;;;;5094561;28;20039;-84
2021/01/12 09:02:00;;;;;;;;;;;24.20;90.50;;;;;;5094100;28;19909;-83
2021/01/12 09:04:30;;;;;;;;;;;24.10;91.00;;;;;;5094239;28;19970;-82
2021/01/12 09:07:03;;;;;;;;;;;24.10;91.20;;;;;;5094339;28;19916;-83
2021/01/12 09:09:30;;;;;;;;;;;24.00;91.50;;;;;;5094280;28;19915;-84
2021/01/12 09:12:00;;;;;;;;;;;24.00;92.10;;;;;;5093763;28;19914;-83
2021/01/12 09:14:27;;;;;;;;;;;24.00;92.40;;;;;;5094197;28;19909;-83
2021/01/12 09:16:55;;;;;;;;;;;23.90;92.60;;;;;;5094123;28;19918;-84
2021/01/12 09:19:22;;;;;;;;;;;23.80;93.10;;;;;;5094154;28;19912;-84
2021/01/12 09:21:48;;;;;;;;;;;23.70;93.50;;;;;;5093813;28;19965;-82
2021/01/12 09:24:16;;;;;;;;;;;23.70;93.80;;;;;;5093736;28;19958;-82
2021/01/12 09:26:43;;;;;;;;;;;23.70;94.00;;;;;;5093363;28;19924;-82
2021/01/12 09:29:10;;;;;;;;;;;23.70;94.30;;;;;;5092236;28;20330;-84
2021/01/12 09:31:47;;;;;;;;;;;23.70;94.40;;;;;;5082440;28;19962;-85
2021/01/12 09:34:23;;;;;;;;;;;23.60;94.60;;;;;;5074808;28;19955;-82
2021/01/12 09:36:50;;;;;;;;;;;23.60;95.00;;;;;;5073430;28;20351;-85
2021/01/12 09:39:17;;;;;;;;;;;23.50;95.20;;;;;;5072998;28;19962;-84
2021/01/12 09:41:43;;;;;;;;;;;23.60;95.40;;;;;;5073879;28;20307;-82
2021/01/12 09:44:10;;;;;;;;;;;23.60;95.50;;;;;;5090996;28;19912;-83
2021/01/12 09:46:37;;;;;;;;;;;23.50;95.50;;;;;;5091903;28;19976;-84
2021/01/12 09:49:04;;;;;;;;;;;23.50;96.00;;;;;;5092209;28;19914;-84
2021/01/12 09:51:31;;;;;;;;;;;23.50;96.10;;;;;;5090624;28;19919;-82
2021/01/12 09:53:57;;;;;;;;;;;23.50;96.30;;;;;;5091141;28;19923;-84
2021/01/12 09:56:24;;;;;;;;;;;23.50;96.30;;;;;;5091168;28;19936;-81
2021/01/12 09:58:51;;;;;;;;;;;23.40;96.40;;;;;;5090539;28;19962;-83
2021/01/12 10:01:18;;;;;;;;;;;23.40;96.80;;;;;;5092928;28;19943;-82
2021/01/12 10:03:48;;;;;;;;;;;23.40;96.60;;;;;;5090537;28;19916;-82
2021/01/12 10:06:19;;;;;;;;;;;23.40;96.50;;;;;;5091693;28;19912;-83
2021/01/12 10:08:48;;;;;;;;;;;23.40;96.70;;;;;;5089853;28;19912;-84
2021/01/12 10:11:20;;;;;;;;;;;23.40;97.00;;;;;;5089444;28;20261;-82
2021/01/12 10:13:50;;;;;;;;;;;23.40;97.10;;;;;;5091666;28;19912;-83
2021/01/12 10:16:20;;;;;;;;;;;23.30;97.20;;;;;;5092924;28;19957;-80
2021/01/12 10:18:47;;;;;;;;;;;23.30;97.50;;;;;;5090450;28;19912;-83
2021/01/12 10:21:15;;;;;;;;;;;23.20;97.50;;;;;;5089793;28;19994;-83
2021/01/12 10:23:42;;;;;;;;;;;23.30;97.60;;;;;;5077233;28;19942;-89
2021/01/12 10:26:18;;;;;;;;;;;23.20;97.60;;;;;;5077124;28;19916;-83
2021/01/12 10:28:51;;;;;;;;;;;23.20;97.60;;;;;;5074521;28;20195;-83
2021/01/12 10:31:20;;;;;;;;;;;23.20;98.20;;;;;;5076164;28;19916;-83
2021/01/12 10:33:51;;;;;;;;;;;23.20;98.00;;;;;;5088732;28;19963;-84
2021/01/12 10:36:19;;;;;;;;;;;23.20;98.30;;;;;;5071622;28;19910;-86
2021/01/12 10:38:46;;;;;;;;;;;23.20;98.00;;;;;;5082598;28;19912;-80
2021/01/12 10:41:13;;;;;;;;;;;23.20;98.10;;;;;;5083196;28;19912;-85
2021/01/12 10:43:40;;;;;;;;;;;23.20;98.20;;;;;;5089533;28;20594;-83
2021/01/12 10:46:07;;;;;;;;;;;23.20;98.30;;;;;;5089825;28;19916;-81
2021/01/12 10:48:34;;;;;;;;;;;23.10;98.60;;;;;;5091131;28;19947;-81
2021/01/12 10:51:09;;;;;;;;;;;23.10;98.40;;;;;;5092400;28;19908;-80
2021/01/12 10:53:36;;;;;;;;;;;23.20;98.60;;;;;;5087843;28;19926;-81
2021/01/12 10:56:03;;;;;;;;;;;23.10;98.60;;;;;;5090969;28;19908;-84
2021/01/12 10:58:30;;;;;;;;;;;23.10;98.60;;;;;;5091675;28;19943;-81
2021/01/12 11:00:57;;;;;;;;;;;23.20;98.70;;;;;;5089348;28;19916;-80
2021/01/12 11:03:24;;;;;;;;;;;23.10;98.70;;;;;;5090198;28;19965;-80
2021/01/12 11:05:54;;;;;;;;;;;23.10;98.70;;;;;;5089251;28;19919;-81
2021/01/12 11:08:22;;;;;;;;;;;23.20;98.80;;;;;;5091609;28;19974;-81
2021/01/12 11:10:48;;;;;;;;;;;23.20;98.80;;;;;;5091533;28;19920;-79
2021/01/12 11:13:18;;;;;;;;;;;23.20;98.70;;;;;;5090055;28;19912;-81
2021/01/12 11:15:45;;;;;;;;;;;23.20;98.70;;;;;;5089317;28;19912;-80
2021/01/12 11:18:15;;;;;;;;;;;23.20;98.80;;;;;;5089909;28;19916;-82
2021/01/12 11:20:46;;;;;;;;;;;23.10;98.80;;;;;;5093866;28;20313;-85
2021/01/12 11:23:13;;;;;;;;;;;23.20;99.00;;;;;;5090925;28;19913;-85
2021/01/12 11:25:46;;;;;;;;;;;23.20;98.80;;;;;;5090899;28;20379;-83
2021/01/12 11:28:13;;;;;;;;;;;23.20;98.80;;;;;;5095783;28;19920;-82
2021/01/12 11:30:39;;;;;;;;;;;23.20;98.80;;;;;;5094954;28;19969;-82
2021/01/12 11:33:07;;;;;;;;;;;23.20;98.90;;;;;;5095194;28;19919;-83
2021/01/12 11:35:34;;;;;;;;;;;23.10;98.80;;;;;;5095127;28;20247;-83
2021/01/12 11:38:01;;;;;;;;;;;23.10;98.90;;;;;;5095001;28;19908;-83
2021/01/12 11:40:27;;;;;;;;;;;23.20;98.90;;;;;;5094200;28;19958;-82
2021/01/12 11:42:58;;;;;;;;;;;23.20;98.90;;;;;;5095287;28;19912;-81
2021/01/12 11:45:25;;;;;;;;;;;23.10;98.80;;;;;;5095541;28;20366;-82
2021/01/12 11:47:51;;;;;;;;;;;23.10;98.80;;;;;;5094681;28;20335;-82
2021/01/12 11:50:21;;;;;;;;;;;23.10;98.80;;;;;;5102621;28;19915;-82
2021/01/12 11:52:54;;;;;;;;;;;23.10;98.90;;;;;;5114715;28;19908;-84
2021/01/12 11:55:21;;;;;;;;;;;23.10;99.00;;;;;;5075594;28;19915;-83
2021/01/12 11:57:48;;;;;;;;;;;23.00;99.00;;;;;;5084838;28;20053;-81
2021/01/12 12:00:15;;;;;;;;;;;23.00;99.10;;;;;;5093336;28;19919;-82
2021/01/12 12:02:41;;;;;;;;;;;23.00;99.50;;;;;;5095198;28;20005;-83
2021/01/12 12:05:08;;;;;;;;;;;22.90;99.10;;;;;;5091467;28;19916;-82
2021/01/12 12:07:35;;;;;;;;;;;22.90;99.20;;;;;;5085947;28;20370;-82
2021/01/12 12:10:02;;;;;;;;;;;22.90;99.30;;;;;;5095163;28;19912;-82
2021/01/12 12:12:29;;;;;;;;;;;22.90;99.40;;;;;;5096537;28;19908;-82
2021/01/12 12:14:55;;;;;;;;;;;22.90;99.30;;;;;;5089620;28;19916;-82
2021/01/12 12:17:22;;;;;;;;;;;22.80;99.40;;;;;;5089798;28;20511;-82
2021/01/12 12:19:49;;;;;;;;;;;22.80;99.50;;;;;;5085363;28;19920;-83
2021/01/12 12:22:16;;;;;;;;;;;22.80;99.50;;;;;;5095113;28;20316;-81
2021/01/12 12:24:42;;;;;;;;;;;22.80;99.50;;;;;;5095129;28;20336;-83
2021/01/12 12:27:09;;;;;;;;;;;22.80;99.60;;;;;;5094209;28;19970;-82
2021/01/12 12:29:36;;;;;;;;;;;22.80;99.70;;;;;;5094339;28;20006;-86
2021/01/12 12:32:06;;;;;;;;;;;22.70;99.80;;;;;;5094391;28;19916;-84
2021/01/12 12:34:33;;;;;;;;;;;22.70;99.90;;;;;;5082455;28;19918;-82
2021/01/12 12:37:00;;;;;;;;;;;22.70;99.90;;;;;;5075048;28;19924;-82
2021/01/12 12:39:32;;;;;;;;;;;22.70;99.90;;;;;;5087825;28;19912;-83
2021/01/12 12:42:01;;;;;;;;;;;22.70;99.90;;;;;;5092760;28;19920;-84
2021/01/12 12:44:28;;;;;;;;;;;22.70;99.90;;;;;;5094581;28;20381;-85
2021/01/12 12:46:55;;;;;;;;;;;22.70;99.90;;;;;;5092983;28;19941;-84
2021/01/12 12:49:21;;;;;;;;;;;22.70;99.90;;;;;;5093662;28;20433;-85
2021/01/12 12:51:48;;;;;;;;;;;22.70;99.90;;;;;;5092828;28;19912;-84
2021/01/12 12:54:20;;;;;;;;;;;22.60;99.90;;;;;;5092711;28;19912;-84
2021/01/12 12:56:53;;;;;;;;;;;22.60;99.90;;;;;;5092943;28;19916;-83
2021/01/12 12:59:21;;;;;;;;;;;22.60;99.90;;;;;;5094055;28;19919;-83
2021/01/12 13:01:51;;;;;;;;;;;22.60;99.90;;;;;;5090851;28;19916;-82
2021/01/12 13:04:18;;;;;;;;;;;22.60;99.90;;;;;;5093605;28;19919;-84
2021/01/12 13:06:51;;;;;;;;;;;22.60;99.90;;;;;;5093560;28;19989;-84
2021/01/12 13:09:19;;;;;;;;;;;22.60;99.90;;;;;;5093446;28;19912;-82
2021/01/12 13:11:49;;;;;;;;;;;22.60;99.90;;;;;;5093911;28;19914;-83
2021/01/12 13:14:16;;;;;;;;;;;22.60;99.90;;;;;;5095440;28;20381;-83
2021/01/12 13:16:43;;;;;;;;;;;22.60;99.90;;;;;;5111861;28;19915;-83
2021/01/12 13:19:17;;;;;;;;;;;22.50;99.90;;;;;;5110271;28;19990;-83
2021/01/12 13:21:54;;;;;;;;;;;22.50;99.90;;;;;;5089298;28;20012;-83
2021/01/12 13:24:21;;;;;;;;;;;22.50;99.90;;;;;;5079384;28;20298;-83
2021/01/12 13:26:48;;;;;;;;;;;22.50;99.90;;;;;;5087104;28;19920;-84
2021/01/12 13:29:16;;;;;;;;;;;22.50;99.90;;;;;;5089257;28;19935;-83
2021/01/12 13:31:42;;;;;;;;;;;22.50;99.90;;;;;;5086901;28;19912;-84
2021/01/12 13:34:09;;;;;;;;;;;22.50;99.90;;;;;;5093733;28;19962;-84
2021/01/12 13:36:36;;;;;;;;;;;22.50;99.90;;;;;;5075875;28;19958;-84
2021/01/12 13:39:07;;;;;;;;;;;22.50;99.90;;;;;;5089600;28;19948;-84
2021/01/12 13:41:35;;;;;;;;;;;22.50;99.90;;;;;;5084542;28;19924;-84
2021/01/12 13:44:01;;;;;;;;;;;22.50;99.90;;;;;;5077716;28;19916;-84
2021/01/12 13:46:28;;;;;;;;;;;22.50;99.90;;;;;;5093043;28;19912;-84
2021/01/12 13:48:55;;;;;;;;;;;22.50;99.90;;;;;;5073821;28;19908;-84
2021/01/12 13:51:22;;;;;;;;;;;22.50;99.90;;;;;;5073080;28;19973;-84
2021/01/12 13:53:52;;;;;;;;;;;22.40;99.90;;;;;;5091851;28;19925;-83
2021/01/12 13:56:23;;;;;;;;;;;22.50;99.90;;;;;;5087163;28;19918;-83
2021/01/12 13:58:50;;;;;;;;;;;22.50;99.90;;;;;;5085257;28;20033;-84
2021/01/12 14:01:17;;;;;;;;;;;22.50;99.90;;;;;;5081368;28;19912;-84
2021/01/12 14:03:44;;;;;;;;;;;22.40;99.90;;;;;;5073439;28;19912;-84
2021/01/12 14:06:11;;;;;;;;;;;22.40;99.90;;;;;;5072858;28;19916;-84
2021/01/12 14:08:38;;;;;;;;;;;22.40;99.90;;;;;;5082246;28;20385;-83
2021/01/12 14:11:05;;;;;;;;;;;22.40;99.90;;;;;;5098652;28;19908;-84
2021/01/12 14:13:32;;;;;;;;;;;22.40;99.90;;;;;;5081382;28;19977;-84
2021/01/12 14:15:59;;;;;;;;;;;22.40;99.90;;;;;;5085647;28;19958;-83
2021/01/12 14:18:33;;;;;;;;;;;22.40;99.90;;;;;;5084539;28;19918;-83
2021/01/12 14:21:00;;;;;;;;;;;22.40;99.90;;;;;;5086865;28;19912;-84